createdAt,value
2019-02-09T00:00:41.438Z,410.92
2019-02-09T00:01:41.435Z,410.95
2019-02-09T00:02:41.425Z,411.28
2019-02-09T00:03:41.424Z,410.76
2019-02-09T00:04:41.427Z,410.77
2019-02-09T00:05:41.402Z,411.23
2019-02-09T00:06:41.400Z,410.73
2019-02-09T00:07:41.374Z,411.39
2019-02-09T00:08:41.366Z,410.64
2019-02-09T00:09:41.363Z,410.73
2019-02-09T00:10:41.340Z,410.95
2019-02-09T00:11:41.360Z,411.10
2019-02-09T00:12:41.308Z,410.73
2019-02-09T00:13:41.313Z,411.51
2019-02-09T00:14:41.298Z,410.74
2019-02-09T00:15:41.321Z,411.12
2019-02-09T00:16:41.279Z,411.26
2019-02-09T00:17:41.264Z,410.38
2019-02-09T00:18:41.246Z,411.08
2019-02-09T00:19:41.243Z,410.59
2019-02-09T00:20:41.227Z,410.65
2019-02-09T00:21:41.309Z,410.94
2019-02-09T00:22:41.209Z,409.96
2019-02-09T00:23:41.206Z,410.66
2019-02-09T00:24:41.193Z,411.23
2019-02-09T00:25:41.183Z,410.80
2019-02-09T00:26:41.166Z,410.73
2019-02-09T00:27:41.180Z,410.44
2019-02-09T00:28:41.156Z,409.77
2019-02-09T00:29:46.123Z,410.54
2019-02-09T00:30:42.121Z,410.96
2019-02-09T00:31:41.101Z,410.73
2019-02-09T00:32:41.084Z,410.73
2019-02-09T00:33:41.087Z,410.34
2019-02-09T00:34:41.080Z,410.43
2019-02-09T00:35:41.092Z,410.79
2019-02-09T00:36:41.060Z,410.45
2019-02-09T00:37:41.062Z,410.16
2019-02-09T00:38:41.053Z,410.07
2019-02-09T00:39:41.025Z,410.30
2019-02-09T00:40:41.002Z,410.97
2019-02-09T00:41:40.989Z,411.11
2019-02-09T00:42:40.988Z,409.96
2019-02-09T00:43:40.980Z,410.40
2019-02-09T00:44:40.984Z,410.31
2019-02-09T00:45:40.949Z,411.16
2019-02-09T00:46:40.950Z,409.99
2019-02-09T00:47:40.932Z,411.10
2019-02-09T00:48:40.933Z,411.19
2019-02-09T00:49:40.955Z,410.80
2019-02-09T00:50:40.897Z,410.22
2019-02-09T00:51:40.887Z,411.24
2019-02-09T00:52:40.871Z,411.25
2019-02-09T00:53:40.865Z,410.08
2019-02-09T00:54:40.864Z,410.68
2019-02-09T00:55:40.885Z,410.01
2019-02-09T00:56:40.847Z,410.30
2019-02-09T00:57:40.844Z,410.71
2019-02-09T00:58:40.807Z,410.89
2019-02-09T00:59:40.793Z,410.39
2019-02-09T01:00:40.791Z,410.83
2019-02-09T01:01:40.800Z,410.85
2019-02-09T01:02:40.770Z,410.35
2019-02-09T01:03:40.755Z,409.80
2019-02-09T01:04:40.774Z,410.58
2019-02-09T01:05:40.731Z,411.55
2019-02-09T01:06:40.729Z,410.54
2019-02-09T01:07:40.754Z,410.75
2019-02-09T01:08:40.708Z,409.88
2019-02-09T01:09:40.693Z,411.04
2019-02-09T01:10:40.680Z,411.62
2019-02-09T01:11:40.654Z,410.38
2019-02-09T01:12:40.674Z,410.23
2019-02-09T01:13:40.636Z,411.20
2019-02-09T01:14:40.641Z,411.05
2019-02-09T01:15:40.630Z,410.11
2019-02-09T01:16:40.610Z,410.89
2019-02-09T01:17:40.599Z,410.90
2019-02-09T01:18:40.632Z,410.00
2019-02-09T01:19:40.590Z,409.48
2019-02-09T01:20:40.577Z,410.35
2019-02-09T01:21:40.571Z,410.94
2019-02-09T01:22:40.555Z,410.20
2019-02-09T01:23:40.536Z,411.15
2019-02-09T01:24:40.537Z,410.90
2019-02-09T01:25:40.515Z,411.40
2019-02-09T01:26:40.505Z,410.50
2019-02-09T01:27:40.496Z,410.70
2019-02-09T01:28:40.492Z,410.83
2019-02-09T01:29:40.508Z,409.71
2019-02-09T01:30:40.455Z,410.57
2019-02-09T01:31:40.457Z,410.98
2019-02-09T01:32:40.451Z,411.05
2019-02-09T01:33:40.440Z,411.44
2019-02-09T01:34:40.410Z,411.15
2019-02-09T01:35:40.440Z,411.37
2019-02-09T01:36:40.388Z,410.46
2019-02-09T01:37:40.382Z,409.74
2019-02-09T01:38:40.375Z,410.45
2019-02-09T01:39:40.361Z,410.87
2019-02-09T01:40:40.352Z,410.58
2019-02-09T01:41:40.382Z,411.24
2019-02-09T01:42:40.324Z,410.77
2019-02-09T01:43:40.320Z,410.90
2019-02-09T01:44:40.300Z,409.75
2019-02-09T01:45:40.302Z,410.54
2019-02-09T01:46:40.308Z,410.91
2019-02-09T01:47:40.309Z,410.45
2019-02-09T01:48:40.262Z,410.96
2019-02-09T01:49:40.258Z,411.16
2019-02-09T01:50:40.243Z,410.48
2019-02-09T01:51:40.238Z,410.74
2019-02-09T01:52:40.241Z,410.26
2019-02-09T01:53:40.229Z,410.58
2019-02-09T01:54:40.193Z,409.62
2019-02-09T01:55:40.177Z,410.72
2019-02-09T01:56:40.178Z,410.38
2019-02-09T01:57:40.161Z,410.48
2019-02-09T01:58:40.191Z,411.24
2019-02-09T01:59:40.144Z,410.53
2019-02-09T02:00:40.150Z,410.86
2019-02-09T02:01:40.126Z,410.39
2019-02-09T02:02:40.111Z,410.49
2019-02-09T02:03:40.098Z,410.29
2019-02-09T02:04:40.131Z,411.00
2019-02-09T02:05:40.081Z,409.98
2019-02-09T02:06:40.079Z,410.02
2019-02-09T02:07:40.054Z,410.70
2019-02-09T02:08:40.045Z,410.90
2019-02-09T02:09:40.061Z,410.31
2019-02-09T02:10:40.034Z,410.61
2019-02-09T02:11:40.013Z,410.97
2019-02-09T02:12:40.018Z,410.80
2019-02-09T02:13:40.036Z,410.97
2019-02-09T02:14:39.968Z,411.53
2019-02-09T02:15:40.000Z,410.66
2019-02-09T02:16:39.947Z,411.39
2019-02-09T02:17:39.946Z,410.51
2019-02-09T02:18:39.934Z,410.13
2019-02-09T02:19:39.931Z,411.41
2019-02-09T02:20:39.908Z,410.68
2019-02-09T02:21:39.914Z,409.98
2019-02-09T02:22:39.891Z,410.80
2019-02-09T02:23:39.888Z,411.25
2019-02-09T02:24:39.875Z,411.20
2019-02-09T02:25:39.901Z,411.11
2019-02-09T02:26:39.844Z,412.04
2019-02-09T02:27:39.880Z,410.31
2019-02-09T02:28:39.822Z,411.06
2019-02-09T02:29:39.813Z,411.80
2019-02-09T02:30:39.806Z,411.95
2019-02-09T02:31:39.807Z,411.42
2019-02-09T02:32:39.789Z,410.88
2019-02-09T02:33:39.806Z,411.14
2019-02-09T02:34:39.764Z,410.14
2019-02-09T02:35:39.749Z,410.22
2019-02-09T02:36:39.749Z,410.92
2019-02-09T02:37:39.743Z,410.49
2019-02-09T02:38:39.710Z,411.03
2019-02-09T02:39:39.726Z,411.06
2019-02-09T02:40:39.694Z,411.45
2019-02-09T02:41:39.709Z,411.84
2019-02-09T02:42:39.677Z,411.80
2019-02-09T02:43:39.667Z,410.90
2019-02-09T02:44:39.696Z,411.11
2019-02-09T02:45:39.644Z,410.24
2019-02-09T02:46:39.626Z,410.85
2019-02-09T02:47:39.618Z,411.00
2019-02-09T02:48:39.602Z,411.04
2019-02-09T02:49:39.589Z,410.86
2019-02-09T02:50:39.621Z,410.63
2019-02-09T02:51:39.581Z,411.77
2019-02-09T02:52:39.568Z,411.41
2019-02-09T02:53:39.546Z,412.41
2019-02-09T02:54:39.556Z,411.56
2019-02-09T02:55:39.562Z,411.88
2019-02-09T02:56:39.526Z,411.64
2019-02-09T02:57:39.512Z,411.10
2019-02-09T02:58:39.499Z,410.79
2019-02-09T02:59:39.482Z,412.35
2019-02-09T03:00:39.495Z,411.57
2019-02-09T03:01:39.466Z,411.41
2019-02-09T03:02:39.472Z,411.43
2019-02-09T03:03:39.445Z,410.92
2019-02-09T03:04:39.455Z,411.29
2019-02-09T03:05:39.459Z,412.75
2019-02-09T03:06:39.427Z,412.10
2019-02-09T03:07:39.438Z,411.07
2019-02-09T03:08:39.407Z,411.38
2019-02-09T03:09:39.407Z,411.27
2019-02-09T03:10:39.387Z,411.78
2019-02-09T03:11:39.384Z,411.68
2019-02-09T03:12:39.360Z,410.86
2019-02-09T03:13:39.381Z,410.96
2019-02-09T03:14:39.367Z,410.43
2019-02-09T03:15:39.327Z,410.36
2019-02-09T03:16:39.305Z,411.13
2019-02-09T03:17:39.305Z,410.91
2019-02-09T03:18:39.276Z,410.97
2019-02-09T03:19:39.285Z,410.93
2019-02-09T03:20:39.259Z,411.12
2019-02-09T03:21:39.248Z,412.08
2019-02-09T03:22:39.240Z,411.34
2019-02-09T03:23:39.236Z,411.24
2019-02-09T03:24:39.240Z,412.41
2019-02-09T03:25:39.205Z,411.96
2019-02-09T03:26:39.197Z,412.42
2019-02-09T03:27:39.186Z,411.65
2019-02-09T03:28:39.175Z,411.05
2019-02-09T03:29:39.178Z,411.03
2019-02-09T03:30:47.735Z,411.03
2019-02-09T03:31:40.142Z,411.94
2019-02-09T03:32:39.166Z,411.11
2019-02-09T03:33:39.134Z,411.80
2019-02-09T03:34:39.114Z,412.25
2019-02-09T03:35:39.092Z,412.34
2019-02-09T03:36:39.101Z,411.55
2019-02-09T03:37:39.074Z,409.76
2019-02-09T03:38:39.070Z,410.86
2019-02-09T03:39:39.045Z,413.02
2019-02-09T03:40:39.047Z,411.98
2019-02-09T03:41:39.034Z,411.33
2019-02-09T03:42:39.016Z,411.40
2019-02-09T03:43:39.046Z,410.43
2019-02-09T03:44:38.995Z,412.19
2019-02-09T03:45:38.983Z,412.36
2019-02-09T03:46:38.982Z,412.31
2019-02-09T03:47:38.968Z,411.73
2019-02-09T03:48:38.978Z,412.33
2019-02-09T03:49:38.959Z,412.00
2019-02-09T03:50:38.926Z,412.31
2019-02-09T03:51:38.911Z,411.92
2019-02-09T03:52:38.897Z,411.25
2019-02-09T03:53:38.886Z,410.55
2019-02-09T03:54:38.920Z,411.73
2019-02-09T03:55:38.881Z,411.82
2019-02-09T03:56:38.858Z,410.83
2019-02-09T03:57:38.851Z,409.97
2019-02-09T03:58:38.860Z,412.18
2019-02-09T03:59:38.840Z,410.41
2019-02-09T04:00:38.850Z,412.28
2019-02-09T04:01:38.821Z,413.39
2019-02-09T04:02:38.796Z,410.85
2019-02-09T04:03:38.792Z,410.65
2019-02-09T04:04:38.775Z,412.09
2019-02-09T04:05:38.802Z,411.47
2019-02-09T04:06:38.766Z,409.39
2019-02-09T04:07:38.762Z,413.07
2019-02-09T04:08:38.739Z,412.89
2019-02-09T04:09:38.756Z,411.26
2019-02-09T04:10:38.707Z,410.96
2019-02-09T04:11:38.750Z,411.35
2019-02-09T04:12:38.691Z,411.05
2019-02-09T04:13:38.691Z,412.84
2019-02-09T04:14:38.663Z,409.79
2019-02-09T04:15:38.658Z,409.91
2019-02-09T04:16:38.650Z,409.90
2019-02-09T04:17:38.656Z,411.98
2019-02-09T04:18:38.632Z,410.68
2019-02-09T04:19:38.631Z,412.95
2019-02-09T04:20:38.607Z,411.60
2019-02-09T04:21:38.605Z,412.38
2019-02-09T04:22:38.619Z,411.47
2019-02-09T04:23:38.576Z,411.61
2019-02-09T04:24:38.573Z,410.48
2019-02-09T04:25:38.553Z,411.08
2019-02-09T04:26:38.545Z,408.94
2019-02-09T04:27:38.530Z,410.09
2019-02-09T04:28:38.545Z,412.42
2019-02-09T04:29:38.513Z,410.40
2019-02-09T04:30:38.506Z,410.73
2019-02-09T04:31:38.501Z,412.00
2019-02-09T04:32:38.481Z,411.70
2019-02-09T04:33:38.512Z,411.79
2019-02-09T04:34:38.457Z,412.70
2019-02-09T04:35:38.437Z,411.27
2019-02-09T04:36:38.430Z,409.74
2019-02-09T04:37:38.414Z,411.20
2019-02-09T04:38:38.421Z,411.89
2019-02-09T04:39:38.432Z,410.38
2019-02-09T04:40:38.393Z,411.67
2019-02-09T04:41:38.391Z,412.27
2019-02-09T04:42:38.374Z,408.93
2019-02-09T04:43:38.383Z,412.73
2019-02-09T04:44:38.368Z,411.38
2019-02-09T04:45:38.338Z,413.54
2019-02-09T04:46:38.340Z,411.31
2019-02-09T04:47:38.313Z,414.37
2019-02-09T04:48:38.346Z,411.86
2019-02-09T04:49:38.287Z,411.06
2019-02-09T04:50:38.282Z,410.06
2019-02-09T04:51:38.274Z,410.06
2019-02-09T04:52:38.267Z,412.30
2019-02-09T04:53:38.277Z,413.13
2019-02-09T04:54:38.233Z,412.95
2019-02-09T04:55:38.221Z,411.00
2019-02-09T04:56:38.206Z,413.67
2019-02-09T04:57:38.199Z,413.24
2019-02-09T04:58:38.219Z,412.03
2019-02-09T04:59:38.181Z,411.99
2019-02-09T05:00:38.164Z,412.15
2019-02-09T05:01:38.154Z,409.49
2019-02-09T05:02:38.148Z,412.57
2019-02-09T05:03:38.138Z,412.67
2019-02-09T05:04:38.151Z,412.27
2019-02-09T05:05:38.146Z,411.50
2019-02-09T05:06:38.096Z,411.45
2019-02-09T05:07:38.086Z,411.45
2019-02-09T05:08:38.103Z,410.68
2019-02-09T05:09:38.108Z,411.36
2019-02-09T05:10:38.070Z,411.42
2019-02-09T05:11:38.061Z,409.05
2019-02-09T05:12:38.048Z,411.19
2019-02-09T05:13:38.030Z,411.52
2019-02-09T05:14:38.008Z,412.24
2019-02-09T05:15:38.034Z,411.95
2019-02-09T05:16:37.996Z,412.60
2019-02-09T05:17:37.988Z,410.88
2019-02-09T05:18:37.970Z,412.26
2019-02-09T05:19:37.959Z,411.46
2019-02-09T05:20:37.944Z,412.09
2019-02-09T05:21:38.364Z,409.63
2019-02-09T05:22:37.960Z,410.91
2019-02-09T05:23:37.928Z,412.74
2019-02-09T05:24:37.934Z,409.41
2019-02-09T05:25:37.904Z,411.75
2019-02-09T05:26:37.913Z,410.13
2019-02-09T05:27:37.897Z,412.00
2019-02-09T05:28:37.878Z,412.57
2019-02-09T05:29:37.847Z,413.06
2019-02-09T05:30:37.847Z,411.85
2019-02-09T05:31:37.864Z,412.12
2019-02-09T05:32:37.828Z,411.72
2019-02-09T05:33:37.821Z,408.53
2019-02-09T05:34:37.809Z,412.07
2019-02-09T05:35:37.791Z,409.69
2019-02-09T05:36:37.818Z,408.35
2019-02-09T05:37:37.767Z,413.77
2019-02-09T05:38:37.750Z,412.62
2019-02-09T05:39:37.736Z,409.71
2019-02-09T05:40:37.720Z,411.64
2019-02-09T05:41:37.732Z,413.14
2019-02-09T05:42:37.741Z,412.76
2019-02-09T05:43:37.699Z,411.95
2019-02-09T05:44:37.697Z,409.79
2019-02-09T05:45:37.688Z,412.86
2019-02-09T05:46:37.692Z,412.62
2019-02-09T05:47:37.656Z,411.43
2019-02-09T05:48:37.663Z,412.40
2019-02-09T05:49:37.639Z,413.17
2019-02-09T05:50:37.640Z,410.53
2019-02-09T05:51:37.623Z,411.44
2019-02-09T05:52:37.648Z,411.98
2019-02-09T05:53:37.579Z,411.14
2019-02-09T05:54:37.594Z,411.23
2019-02-09T05:55:37.573Z,411.80
2019-02-09T05:56:37.588Z,411.64
2019-02-09T05:57:37.552Z,412.62
2019-02-09T05:58:37.552Z,411.72
2019-02-09T05:59:37.516Z,411.73
2019-02-09T06:00:37.525Z,412.00
2019-02-09T06:01:37.498Z,411.88
2019-02-09T06:02:37.497Z,411.28
2019-02-09T06:03:37.498Z,411.98
2019-02-09T06:04:37.464Z,413.37
2019-02-09T06:05:37.490Z,411.61
2019-02-09T06:06:37.452Z,412.21
2019-02-09T06:07:37.455Z,413.44
2019-02-09T06:08:37.433Z,413.90
2019-02-09T06:09:37.418Z,413.77
2019-02-09T06:10:37.404Z,414.07
2019-02-09T06:11:37.411Z,413.88
2019-02-09T06:12:37.373Z,411.93
2019-02-09T06:13:37.371Z,410.93
2019-02-09T06:14:37.361Z,413.84
2019-02-09T06:15:37.361Z,412.81
2019-02-09T06:16:37.377Z,415.20
2019-02-09T06:17:37.338Z,415.94
2019-02-09T06:18:37.313Z,414.93
2019-02-09T06:19:37.301Z,415.16
2019-02-09T06:20:37.350Z,418.94
2019-02-09T06:21:37.308Z,413.62
2019-02-09T06:22:37.319Z,414.69
2019-02-09T06:23:37.500Z,414.98
2019-02-09T06:24:37.265Z,411.99
2019-02-09T06:25:37.235Z,412.36
2019-02-09T06:26:37.276Z,415.36
2019-02-09T06:27:37.252Z,415.89
2019-02-09T06:28:37.253Z,413.53
2019-02-09T06:29:37.213Z,412.85
2019-02-09T06:30:37.189Z,414.28
2019-02-09T06:31:40.824Z,413.65
2019-02-09T06:32:37.190Z,411.99
2019-02-09T06:33:37.180Z,413.80
2019-02-09T06:34:37.151Z,414.29
2019-02-09T06:35:37.142Z,413.61
2019-02-09T06:36:37.167Z,413.46
2019-02-09T06:37:38.913Z,412.10
2019-02-09T06:38:37.107Z,413.48
2019-02-09T06:39:37.089Z,415.19
2019-02-09T06:40:37.085Z,415.89
2019-02-09T06:41:37.163Z,415.35
2019-02-09T06:42:37.046Z,415.08
2019-02-09T06:43:37.052Z,414.60
2019-02-09T06:44:37.030Z,414.65
2019-02-09T06:45:37.015Z,413.17
2019-02-09T06:46:37.023Z,413.92
2019-02-09T06:47:37.052Z,412.87
2019-02-09T06:48:37.020Z,413.54
2019-02-09T06:49:36.987Z,413.55
2019-02-09T06:50:36.984Z,412.65
2019-02-09T06:51:36.945Z,413.03
2019-02-09T06:52:36.968Z,413.27
2019-02-09T06:53:36.943Z,413.41
2019-02-09T06:54:36.920Z,413.36
2019-02-09T06:55:36.911Z,413.66
2019-02-09T06:56:36.917Z,413.40
2019-02-09T06:57:36.915Z,412.84
2019-02-09T06:58:36.895Z,412.80
2019-02-09T06:59:36.883Z,412.73
2019-02-09T07:00:36.868Z,412.89
2019-02-09T07:01:36.891Z,413.01
2019-02-09T07:02:36.855Z,413.35
2019-02-09T07:03:36.891Z,413.04
2019-02-09T07:04:36.820Z,412.89
2019-02-09T07:05:36.840Z,413.66
2019-02-09T07:06:36.803Z,413.22
2019-02-09T07:07:36.895Z,412.54
2019-02-09T07:08:36.781Z,413.95
2019-02-09T07:09:36.780Z,414.08
2019-02-09T07:10:36.970Z,413.62
2019-02-09T07:11:36.790Z,413.16
2019-02-09T07:12:36.748Z,412.65
2019-02-09T07:13:36.741Z,412.05
2019-02-09T07:14:36.940Z,413.20
2019-02-09T07:15:36.697Z,412.82
2019-02-09T07:16:36.674Z,413.31
2019-02-09T07:17:36.675Z,414.05
2019-02-09T07:18:36.670Z,413.21
2019-02-09T07:19:36.691Z,411.51
2019-02-09T07:20:36.678Z,412.41
2019-02-09T07:21:36.646Z,412.55
2019-02-09T07:22:36.862Z,413.01
2019-02-09T07:23:36.649Z,413.00
2019-02-09T07:24:36.621Z,413.81
2019-02-09T07:25:36.622Z,413.54
2019-02-09T07:26:36.565Z,412.30
2019-02-09T07:27:36.573Z,413.85
2019-02-09T07:28:36.545Z,414.16
2019-02-09T07:29:36.544Z,414.12
2019-02-09T07:30:36.535Z,413.95
2019-02-09T07:31:36.667Z,412.90
2019-02-09T07:32:36.521Z,412.52
2019-02-09T07:33:36.509Z,413.38
2019-02-09T07:34:36.561Z,413.24
2019-02-09T07:35:36.477Z,414.22
2019-02-09T07:36:36.508Z,413.57
2019-02-09T07:37:36.526Z,413.97
2019-02-09T07:38:36.469Z,413.09
2019-02-09T07:39:36.436Z,413.27
2019-02-09T07:40:36.517Z,413.78
2019-02-09T07:41:36.439Z,413.49
2019-02-09T07:42:36.432Z,414.91
2019-02-09T07:43:36.543Z,413.54
2019-02-09T07:44:36.384Z,414.94
2019-02-09T07:45:36.391Z,413.60
2019-02-09T07:46:36.384Z,414.61
2019-02-09T07:47:36.362Z,413.81
2019-02-09T07:48:36.362Z,413.79
2019-02-09T07:49:36.333Z,413.15
2019-02-09T07:50:36.343Z,412.23
2019-02-09T07:51:36.303Z,413.16
2019-02-09T07:52:36.346Z,411.34
2019-02-09T07:53:36.396Z,413.79
2019-02-09T07:54:36.301Z,414.00
2019-02-09T07:55:36.253Z,413.58
2019-02-09T07:56:36.367Z,412.49
2019-02-09T07:57:36.271Z,411.74
2019-02-09T07:58:36.283Z,412.78
2019-02-09T07:59:36.237Z,412.48
2019-02-09T08:00:36.198Z,414.70
2019-02-09T08:01:36.272Z,411.72
2019-02-09T08:02:36.221Z,413.61
2019-02-09T08:03:36.247Z,412.92
2019-02-09T08:04:36.194Z,412.42
2019-02-09T08:05:36.199Z,412.81
2019-02-09T08:06:36.150Z,412.64
2019-02-09T08:07:36.127Z,412.92
2019-02-09T08:08:36.140Z,413.16
2019-02-09T08:09:36.107Z,413.63
2019-02-09T08:10:36.105Z,412.97
2019-02-09T08:11:36.116Z,413.29
2019-02-09T08:12:36.070Z,414.15
2019-02-09T08:13:36.083Z,412.54
2019-02-09T08:14:36.072Z,412.27
2019-02-09T08:15:36.063Z,413.12
2019-02-09T08:16:36.032Z,413.45
2019-02-09T08:17:36.045Z,411.98
2019-02-09T08:18:36.019Z,413.79
2019-02-09T08:19:36.004Z,412.99
2019-02-09T08:20:35.994Z,414.21
2019-02-09T08:21:35.974Z,413.79
2019-02-09T08:22:35.966Z,414.12
2019-02-09T08:23:36.019Z,413.49
2019-02-09T08:24:36.045Z,412.28
2019-02-09T08:25:35.958Z,411.99
2019-02-09T08:26:35.986Z,413.25
2019-02-09T08:27:35.907Z,413.36
2019-02-09T08:28:35.947Z,413.80
2019-02-09T08:29:35.903Z,414.02
2019-02-09T08:30:35.927Z,414.17
2019-02-09T08:31:35.881Z,412.77
2019-02-09T08:32:35.849Z,413.47
2019-02-09T08:33:35.859Z,412.83
2019-02-09T08:34:35.918Z,411.98
2019-02-09T08:35:35.840Z,413.13
2019-02-09T08:36:35.816Z,413.72
2019-02-09T08:37:35.840Z,413.50
2019-02-09T08:38:35.831Z,413.53
2019-02-09T08:39:35.794Z,413.48
2019-02-09T08:40:35.781Z,413.31
2019-02-09T08:41:35.746Z,412.57
2019-02-09T08:42:35.779Z,413.84
2019-02-09T08:43:35.778Z,413.55
2019-02-09T08:44:35.736Z,412.25
2019-02-09T08:45:35.718Z,411.20
2019-02-09T08:46:35.731Z,412.28
2019-02-09T08:47:35.745Z,412.87
2019-02-09T08:48:36.699Z,412.37
2019-02-09T08:49:35.749Z,411.39
2019-02-09T08:50:35.701Z,411.77
2019-02-09T08:51:35.695Z,411.24
2019-02-09T08:52:37.327Z,411.46
2019-02-09T08:53:35.822Z,411.76
2019-02-09T08:54:35.663Z,411.14
2019-02-09T08:55:35.634Z,412.45
2019-02-09T08:56:35.611Z,412.88
2019-02-09T08:57:35.581Z,411.34
2019-02-09T08:58:35.562Z,411.43
2019-02-09T08:59:35.803Z,411.08
2019-02-09T09:00:35.585Z,410.66
2019-02-09T09:01:35.559Z,411.53
2019-02-09T09:02:35.524Z,412.41
2019-02-09T09:03:35.726Z,411.71
2019-02-09T09:04:35.793Z,412.94
2019-02-09T09:05:35.764Z,414.85
2019-02-09T09:06:35.552Z,418.75
2019-02-09T09:07:35.570Z,420.96
2019-02-09T09:08:35.484Z,417.39
2019-02-09T09:09:35.513Z,418.02
2019-02-09T09:10:35.432Z,419.30
2019-02-09T09:11:35.482Z,418.72
2019-02-09T09:12:35.437Z,416.34
2019-02-09T09:13:35.429Z,414.20
2019-02-09T09:14:35.403Z,415.30
2019-02-09T09:15:35.384Z,417.04
2019-02-09T09:16:35.413Z,416.50
2019-02-09T09:17:35.395Z,420.60
2019-02-09T09:18:35.437Z,417.19
2019-02-09T09:19:35.366Z,416.50
2019-02-09T09:20:35.329Z,413.46
2019-02-09T09:21:35.341Z,414.37
2019-02-09T09:22:35.312Z,404.92
2019-02-09T09:23:35.376Z,414.25
2019-02-09T09:24:35.358Z,413.71
2019-02-09T09:25:35.316Z,413.22
2019-02-09T09:26:35.265Z,413.61
2019-02-09T09:27:35.256Z,412.22
2019-02-09T09:28:35.347Z,403.40
2019-02-09T09:29:35.248Z,415.39
2019-02-09T09:30:35.260Z,402.70
2019-02-09T09:31:35.201Z,405.35
2019-02-09T09:32:35.212Z,403.87
2019-02-09T09:33:35.203Z,406.55
2019-02-09T09:34:35.268Z,404.00
2019-02-09T09:35:35.155Z,405.63
2019-02-09T09:36:35.153Z,401.06
2019-02-09T09:37:35.172Z,407.22
2019-02-09T09:38:35.199Z,407.76
2019-02-09T09:39:35.150Z,394.97
2019-02-09T09:40:35.130Z,402.47
2019-02-09T09:41:35.098Z,400.62
2019-02-09T09:42:35.103Z,410.54
2019-02-09T09:43:35.129Z,407.71
2019-02-09T09:44:35.056Z,407.37
2019-02-09T09:45:35.047Z,403.86
2019-02-09T09:46:35.066Z,390.84
2019-02-09T09:47:35.070Z,402.24
2019-02-09T09:48:35.107Z,405.59
2019-02-09T09:49:35.030Z,404.33
2019-02-09T09:50:35.040Z,408.02
2019-02-09T09:51:35.000Z,406.04
2019-02-09T09:52:35.003Z,413.69
2019-02-09T09:53:34.975Z,408.42
2019-02-09T09:54:34.977Z,400.55
2019-02-09T09:55:34.947Z,401.61
2019-02-09T09:56:34.940Z,407.80
2019-02-09T09:57:34.918Z,406.71
2019-02-09T09:58:34.937Z,415.53
2019-02-09T09:59:34.907Z,404.92
2019-02-09T10:00:34.924Z,399.67
2019-02-09T10:01:34.879Z,402.20
2019-02-09T10:02:36.517Z,411.04
2019-02-09T10:03:34.881Z,408.25
2019-02-09T10:04:34.858Z,413.16
2019-02-09T10:05:34.844Z,414.08
2019-02-09T10:06:34.822Z,402.13
2019-02-09T10:07:34.810Z,410.74
2019-02-09T10:08:34.806Z,408.17
2019-02-09T10:09:34.814Z,416.27
2019-02-09T10:10:34.823Z,391.46
2019-02-09T10:11:34.781Z,400.75
2019-02-09T10:12:34.806Z,412.60
2019-02-09T10:13:34.751Z,404.10
2019-02-09T10:14:34.776Z,400.32
2019-02-09T10:15:34.730Z,386.33
2019-02-09T10:16:34.719Z,398.88
2019-02-09T10:17:34.692Z,391.21
2019-02-09T10:18:34.693Z,414.20
2019-02-09T10:19:34.687Z,399.67
2019-02-09T10:20:34.685Z,406.19
2019-02-09T10:21:34.654Z,397.00
2019-02-09T10:22:34.652Z,402.35
2019-02-09T10:23:34.638Z,407.37
2019-02-09T10:24:34.628Z,393.77
2019-02-09T10:25:34.650Z,411.89
2019-02-09T10:26:34.604Z,403.30
2019-02-09T10:27:34.603Z,393.66
2019-02-09T10:28:34.580Z,386.82
2019-02-09T10:29:34.571Z,403.23
2019-02-09T10:30:34.563Z,395.53
2019-02-09T10:31:34.599Z,390.85
2019-02-09T10:32:34.543Z,399.43
2019-02-09T10:33:34.529Z,402.12
2019-02-09T10:34:34.509Z,391.29
2019-02-09T10:35:34.506Z,401.07
2019-02-09T10:36:34.499Z,397.26
2019-02-09T10:37:34.514Z,394.20
2019-02-09T10:38:34.481Z,393.00
2019-02-09T10:39:34.461Z,383.89
2019-02-09T10:40:34.442Z,394.76
2019-02-09T10:41:34.430Z,397.36
2019-02-09T10:42:34.442Z,407.29
2019-02-09T10:43:34.438Z,403.62
2019-02-09T10:44:34.420Z,397.12
2019-02-09T10:45:34.401Z,391.72
2019-02-09T10:46:34.379Z,396.82
2019-02-09T10:47:34.412Z,401.28
2019-02-09T10:48:34.362Z,409.24
2019-02-09T10:49:34.349Z,396.51
2019-02-09T10:50:34.346Z,401.71
2019-02-09T10:51:34.333Z,418.85
2019-02-09T10:52:34.312Z,400.35
2019-02-09T10:53:34.339Z,399.05
2019-02-09T10:54:34.295Z,402.01
2019-02-09T10:55:34.290Z,404.78
2019-02-09T10:56:34.275Z,406.44
2019-02-09T10:57:34.279Z,393.93
2019-02-09T10:58:34.341Z,396.85
2019-02-09T10:59:34.259Z,391.10
2019-02-09T11:00:34.218Z,406.27
2019-02-09T11:01:34.203Z,394.17
2019-02-09T11:02:34.207Z,389.48
2019-02-09T11:03:34.192Z,406.55
2019-02-09T11:04:34.235Z,396.44
2019-02-09T11:05:34.181Z,400.62
2019-02-09T11:06:34.160Z,402.48
2019-02-09T11:07:34.162Z,400.55
2019-02-09T11:08:34.180Z,390.40
2019-02-09T11:09:34.167Z,391.81
2019-02-09T11:10:34.119Z,407.15
2019-02-09T11:11:34.131Z,395.19
2019-02-09T11:12:34.091Z,401.69
2019-02-09T11:13:34.112Z,385.07
2019-02-09T11:14:34.083Z,405.09
2019-02-09T11:15:34.077Z,403.48
2019-02-09T11:16:34.060Z,401.36
2019-02-09T11:17:34.054Z,384.13
2019-02-09T11:18:34.027Z,387.75
2019-02-09T11:19:34.831Z,405.88
2019-02-09T11:20:34.006Z,420.50
2019-02-09T11:21:33.996Z,403.84
2019-02-09T11:22:34.044Z,404.70
2019-02-09T11:23:33.979Z,389.73
2019-02-09T11:24:33.963Z,393.00
2019-02-09T11:25:33.955Z,402.53
2019-02-09T11:26:33.947Z,390.69
2019-02-09T11:27:33.930Z,394.47
2019-02-09T11:28:33.953Z,402.29
2019-02-09T11:29:33.953Z,413.40
2019-02-09T11:30:33.898Z,396.16
2019-02-09T11:31:33.888Z,412.53
2019-02-09T11:32:33.874Z,394.92
2019-02-09T11:33:33.864Z,408.42
2019-02-09T11:34:33.887Z,413.91
2019-02-09T11:35:33.848Z,408.97
2019-02-09T11:36:33.835Z,400.87
2019-02-09T11:37:33.833Z,381.20
2019-02-09T11:38:33.809Z,408.66
2019-02-09T11:39:33.817Z,407.62
2019-02-09T11:40:33.799Z,405.92
2019-02-09T11:41:33.789Z,396.33
2019-02-09T11:42:33.762Z,395.03
2019-02-09T11:43:33.745Z,410.16
2019-02-09T11:44:40.890Z,420.00
2019-02-09T11:45:34.762Z,410.47
2019-02-09T11:46:33.722Z,415.20
2019-02-09T11:47:33.715Z,407.08
2019-02-09T11:48:33.699Z,400.50
2019-02-09T11:49:33.707Z,398.55
2019-02-09T11:50:33.673Z,400.23
2019-02-09T11:51:33.680Z,401.04
2019-02-09T11:52:33.680Z,406.96
2019-02-09T11:53:33.649Z,408.08
2019-02-09T11:54:33.645Z,399.82
2019-02-09T11:55:33.643Z,409.15
2019-02-09T11:56:33.608Z,409.68
2019-02-09T11:57:33.608Z,405.63
2019-02-09T11:58:33.695Z,412.39
2019-02-09T11:59:33.580Z,413.16
2019-02-09T12:00:33.685Z,405.67
2019-02-09T12:01:33.559Z,412.79
2019-02-09T12:02:33.558Z,415.61
2019-02-09T12:03:33.527Z,408.81
2019-02-09T12:04:33.606Z,405.50
2019-02-09T12:05:33.523Z,404.78
2019-02-09T12:06:33.585Z,411.06
2019-02-09T12:07:33.492Z,407.12
2019-02-09T12:08:33.532Z,419.55
2019-02-09T12:09:33.514Z,413.48
2019-02-09T12:10:33.471Z,412.52
2019-02-09T12:11:33.441Z,416.92
2019-02-09T12:12:33.489Z,416.35
2019-02-09T12:13:33.426Z,412.72
2019-02-09T12:14:33.463Z,407.42
2019-02-09T12:15:33.447Z,410.16
2019-02-09T12:16:33.403Z,410.26
2019-02-09T12:17:33.385Z,414.03
2019-02-09T12:18:33.393Z,407.67
2019-02-09T12:19:33.398Z,416.23
2019-02-09T12:20:33.352Z,409.34
2019-02-09T12:21:33.346Z,401.88
2019-02-09T12:22:33.321Z,418.14
2019-02-09T12:23:33.300Z,404.43
2019-02-09T12:24:33.291Z,404.73
2019-02-09T12:25:33.512Z,415.98
2019-02-09T12:26:33.311Z,409.77
2019-02-09T12:27:33.293Z,413.92
2019-02-09T12:28:33.298Z,417.33